Pagina principale
METAR-TAF:

METAR-TAF

Aeroporti :

Venezia, Italia

Aeroporto di Venezia-Tessera

latitudine: 45-30N, longitudine: 012-20E, altezza: 2 m

Osservazione

Il bollettino è stato emesso 21 minuti fa, alle 07:50 UTC
Vento 1 kt da direzioni variabili
Temperature 22°C
Umidità 65%
Pressione 1020 hPa
Visibilità 10 km o più
Poco nuvoloso ad un'altezza di 7100 ft

METAR: LIPZ 270750Z VRB01KT 9999 FEW071 22/15 Q1020 NOSIG

Ora: 10:11 (08:11 UTC)

Previsione

Il bollettino è stato emesso 3 ore e 11 minuti fa, alle 05:00 UTC
Previsione valida dal 27 alle 06 UTC al 28 alle 12 UTC
Vento 6 kt da direzioni variabili
Visibilità 10 km o più
Poco nuvoloso ad un'altezza di 5000 ft
Evoluzione graduale
dal 27 alle 08 UTC al 27 alle 10 UTC
Vento 10 kt da sud/sud-est
Evoluzione graduale
dal 27 alle 16 UTC al 27 alle 19 UTC
Vento 6 kt da direzioni variabili

TAF: LIPZ 270500Z 2706/2812 VRB06KT 9999 FEW050 BECMG 2708/2710 16010KT BECMG 2716/2719 VRB06KT

Osservazioni e previsioni meteorologiche di più di 4000 aeroporti (messaggi METAR e TAF).

Le stazioni disponibili sono rappresentate dai dischi gialli e rossi sulla carta.

Puntare il mouse per vedere il nome della stazione.

Clicca sopra per visualizzare le osservazioni e previsioni meteorologiche.

Per cambiare la mappa : fare clic sui pulsanti verdi con una croce nera per ingrandire, il pulsante verde con un trattino per diminuire, o sulla freccia verde per le mappe adiacenti.


METAR-TAF: